Time;durP1;ratioP1;P1;durP2;ratioP2;P2;SDS_P1;SDS_P2;PMS_P1;PMS_P2;Temp;Humidity;BMP_temperature;BMP_pressure;BME280_temperature;BME280_humidity;BME280_pressure;Samples;Min_cycle;Max_cycle;Signal;HPM_P1;HPM_P2
2022/05/07 00:00:33;;;;;;;10.40;7.65;;;;;;;9.08;91.42;95087.14;1631026;87;21207;-53
2022/05/07 00:03:00;;;;;;;11.15;8.25;;;;;;;9.02;90.71;95090.99;1651854;87;21250;-53
2022/05/07 00:05:27;;;;;;;11.05;8.78;;;;;;;9.00;90.87;95085.75;1651781;87;20951;-53
2022/05/07 00:07:53;;;;;;;10.58;9.00;;;;;;;8.95;90.52;95090.39;1651678;87;21014;-52
2022/05/07 00:10:20;;;;;;;11.85;9.25;;;;;;;8.88;90.56;95089.78;1629986;87;21070;-52
2022/05/07 00:12:48;;;;;;;13.13;9.13;;;;;;;8.80;90.25;95102.13;1625236;87;20998;-53
2022/05/07 00:15:15;;;;;;;20.02;10.05;;;;;;;8.71;90.34;95100.55;1651622;87;22056;-51
2022/05/07 00:20:28;;;;;;;20.52;12.13;;;;;;;8.58;90.45;95099.08;1640481;87;20985;-53
2022/05/07 00:22:55;;;;;;;12.13;10.48;;;;;;;8.49;90.52;95097.53;1639607;87;21072;-54
2022/05/07 00:25:24;;;;;;;14.40;10.63;;;;;;;8.38;90.61;95093.45;1630172;88;21113;-53
2022/05/07 00:27:51;;;;;;;16.07;10.03;;;;;;;8.32;91.18;95097.89;1629972;87;21229;-54
2022/05/07 00:30:17;;;;;;;14.38;9.60;;;;;;;8.31;91.36;95094.40;1630032;88;20950;-53
2022/05/07 00:32:45;;;;;;;10.45;8.58;;;;;;;8.32;91.61;95094.58;1629846;88;21450;-52
2022/05/07 00:35:12;;;;;;;10.38;9.35;;;;;;;8.36;91.89;95091.15;1681511;85;21105;-52
2022/05/07 00:37:40;;;;;;;11.10;8.45;;;;;;;8.36;91.79;95087.63;1656748;85;21046;-53
2022/05/07 00:40:08;;;;;;;8.53;7.62;;;;;;;8.36;91.73;95088.99;1681568;84;22043;-52
2022/05/07 00:42:35;;;;;;;10.53;8.33;;;;;;;8.38;92.08;95077.79;1681513;85;21153;-52
2022/05/07 00:45:02;;;;;;;10.10;8.93;;;;;;;8.43;92.09;95085.50;1681814;85;21033;-54
2022/05/07 00:47:38;;;;;;;13.32;10.45;;;;;;;8.50;92.26;95078.52;1681574;85;20998;-54
2022/05/07 00:52:46;;;;;;;17.37;12.47;;;;;;;8.48;91.63;95081.49;1681862;85;21227;-51
2022/05/07 00:55:14;;;;;;;17.98;13.08;;;;;;;8.38;91.53;95080.53;1681854;85;21516;-53
2022/05/07 00:57:43;;;;;;;20.05;13.75;;;;;;;8.40;91.75;95076.77;1681929;84;21042;-54
2022/05/07 01:00:12;;;;;;;20.12;14.00;;;;;;;8.39;91.83;95080.70;1681751;85;21120;-53
2022/05/07 01:02:41;;;;;;;25.48;15.72;;;;;;;8.38;92.07;95075.05;1656858;85;21438;-55
2022/05/07 01:05:10;;;;;;;21.97;13.72;;;;;;;8.40;92.42;95078.13;1681557;85;22100;-53
2022/05/07 01:07:37;;;;;;;26.77;15.83;;;;;;;8.39;92.21;95073.85;1681540;85;20958;-55
2022/05/07 01:10:05;;;;;;;34.80;16.62;;;;;;;8.36;92.16;95073.33;1681698;85;21117;-54
2022/05/07 01:12:35;;;;;;;32.45;18.52;;;;;;;8.36;92.49;95073.33;1681980;84;21014;-54
2022/05/07 01:15:04;;;;;;;24.80;16.07;;;;;;;8.38;92.75;95075.63;1681393;85;21098;-53
2022/05/07 01:17:33;;;;;;;26.17;15.53;;;;;;;8.40;92.92;95080.88;1682133;85;21127;-53
2022/05/07 01:20:00;;;;;;;24.07;15.45;;;;;;;8.40;93.07;95076.77;1681518;85;21014;-53
2022/05/07 01:22:30;;;;;;;24.40;15.45;;;;;;;8.38;92.78;95077.79;1681755;85;21010;-54
2022/05/07 01:24:58;;;;;;;22.90;15.50;;;;;;;8.33;92.59;95074.19;1685549;84;21462;-53
2022/05/07 01:27:25;;;;;;;36.50;25.02;;;;;;;8.31;92.87;95071.69;1687244;85;20986;-52
2022/05/07 01:29:52;;;;;;;38.95;26.15;;;;;;;8.29;92.91;95074.08;1687084;85;21088;-53
2022/05/07 01:32:19;;;;;;;40.70;26.23;;;;;;;8.26;93.09;95075.69;1687164;85;21347;-52
2022/05/07 01:34:45;;;;;;;26.05;18.55;;;;;;;8.31;93.37;95077.16;1687414;85;21422;-53
2022/05/07 01:37:13;;;;;;;21.48;13.98;;;;;;;8.38;93.51;95079.16;1686946;85;21085;-52
2022/05/07 01:39:40;;;;;;;24.57;14.95;;;;;;;8.40;93.27;95077.37;1664454;85;21132;-52
2022/05/07 01:42:08;;;;;;;14.58;11.70;;;;;;;8.42;93.33;95077.72;1665674;85;21227;-53
2022/05/07 01:44:35;;;;;;;18.65;11.63;;;;;;;8.40;93.04;95080.12;1687201;85;20979;-53
2022/05/07 01:49:49;;;;;;;11.00;8.40;;;;;;;8.40;92.51;95072.65;1687021;85;20973;-54
2022/05/07 01:52:17;;;;;;;9.78;8.78;;;;;;;8.36;91.54;95072.55;1665541;85;21038;-53
2022/05/07 01:54:46;;;;;;;8.98;8.05;;;;;;;8.29;91.34;95070.73;1687214;85;21148;-54
2022/05/07 01:57:13;;;;;;;8.90;7.90;;;;;;;8.25;91.37;95071.41;1687155;85;21086;-52
2022/05/07 01:59:40;;;;;;;15.05;11.93;;;;;;;8.23;91.14;95068.94;1687218;85;21105;-54
2022/05/07 02:02:08;;;;;;;18.60;12.40;;;;;;;8.17;90.95;95076.84;1687393;85;21471;-55
2022/05/07 02:04:36;;;;;;;17.73;12.30;;;;;;;8.14;90.99;95068.69;1687118;85;21013;-52
2022/05/07 02:07:04;;;;;;;21.27;13.30;;;;;;;8.13;90.89;95069.89;1687533;85;21984;-53
2022/05/07 02:09:31;;;;;;;19.45;14.07;;;;;;;8.10;90.75;95059.16;1687020;85;21033;-53
2022/05/07 02:11:58;;;;;;;21.57;13.55;;;;;;;8.03;90.78;95067.54;1687406;85;21631;-54
2022/05/07 02:14:26;;;;;;;17.57;13.10;;;;;;;8.00;91.11;95067.02;1687159;85;21025;-51
2022/05/07 02:16:53;;;;;;;12.70;10.93;;;;;;;7.97;91.32;95063.77;1687236;85;21017;-53
2022/05/07 02:19:20;;;;;;;16.62;13.78;;;;;;;8.01;91.54;95063.66;1687430;85;21449;-52
2022/05/07 02:21:48;;;;;;;22.90;14.35;;;;;;;8.01;91.13;95066.41;1687199;84;21013;-54
2022/05/07 02:24:15;;;;;;;29.70;19.10;;;;;;;7.94;90.68;95068.72;1687075;84;21519;-53
2022/05/07 02:26:42;;;;;;;29.12;17.17;;;;;;;7.83;90.76;95064.03;1687121;85;21501;-53
2022/05/07 02:29:09;;;;;;;21.73;15.58;;;;;;;7.75;90.91;95060.48;1687256;85;20990;-53
2022/05/07 02:31:37;;;;;;;22.85;16.17;;;;;;;7.66;90.94;95061.66;1686897;85;21159;-52
2022/05/07 02:34:04;;;;;;;27.00;15.72;;;;;;;7.63;91.00;95063.84;1687371;85;21518;-52
2022/05/07 02:36:32;;;;;;;19.80;14.87;;;;;;;7.59;91.58;95061.20;1687372;85;21022;-55
2022/05/07 02:38:59;;;;;;;18.48;14.47;;;;;;;7.63;92.24;95060.52;1687215;85;21049;-53
2022/05/07 02:43:58;;;;;;;23.85;15.53;;;;;;;7.63;91.79;95063.27;1669803;85;21256;-56
2022/05/07 02:46:24;;;;;;;17.40;12.23;;;;;;;7.61;91.74;95062.13;1687178;85;21025;-53
2022/05/07 02:48:51;;;;;;;17.75;13.00;;;;;;;7.61;91.50;95065.65;1687125;85;21061;-52
2022/05/07 02:51:19;;;;;;;16.87;12.13;;;;;;;7.59;91.38;95063.14;1686997;85;21465;-54
2022/05/07 02:53:46;;;;;;;16.70;12.43;;;;;;;7.56;91.53;95059.27;1687190;85;20982;-53
2022/05/07 02:56:14;;;;;;;17.90;14.35;;;;;;;7.57;91.58;95063.58;1687391;85;21397;-53
2022/05/07 02:58:41;;;;;;;25.08;14.93;;;;;;;7.59;91.51;95063.94;1687197;85;21513;-54
2022/05/07 03:01:07;;;;;;;31.10;15.80;;;;;;;7.60;91.30;95064.11;1686907;85;21002;-55
2022/05/07 03:03:35;;;;;;;30.57;20.65;;;;;;;7.60;91.07;95068.80;1664383;85;21029;-55
2022/05/07 03:06:03;;;;;;;22.40;15.05;;;;;;;7.55;90.87;95065.19;1664881;85;21057;-53
2022/05/07 03:08:32;;;;;;;21.12;14.93;;;;;;;7.47;90.94;95067.28;1687312;85;21857;-54
2022/05/07 03:10:59;;;;;;;19.15;14.25;;;;;;;7.43;91.07;95065.20;1687102;85;21046;-53
2022/05/07 03:13:25;;;;;;;22.62;14.78;;;;;;;7.37;90.97;95064.73;1687300;85;21033;-53
2022/05/07 03:15:53;;;;;;;17.25;13.50;;;;;;;7.33;91.23;95068.14;1687165;85;21093;-54
2022/05/07 03:18:20;;;;;;;15.80;12.35;;;;;;;7.34;91.45;95070.44;1687275;85;21573;-54
2022/05/07 03:20:46;;;;;;;19.27;12.75;;;;;;;7.35;91.40;95067.88;1687143;85;21133;-53
2022/05/07 03:23:15;;;;;;;15.35;12.33;;;;;;;7.31;91.60;95067.17;1686927;83;20954;-53
2022/05/07 03:25:45;;;;;;;17.67;12.73;;;;;;;7.31;91.81;95065.80;1658043;85;21065;-51
2022/05/07 03:28:12;;;;;;;18.85;14.68;;;;;;;7.30;91.82;95071.72;1681719;85;21077;-54
2022/05/07 03:30:39;;;;;;;22.07;15.88;;;;;;;7.27;92.00;95078.00;1682019;85;20995;-53
2022/05/07 03:33:06;;;;;;;18.73;14.65;;;;;;;7.30;92.26;95078.55;1656367;85;21163;-53
2022/05/07 03:35:35;;;;;;;21.62;15.63;;;;;;;7.30;92.24;95076.58;1681794;85;20999;-53
2022/05/07 03:38:02;;;;;;;23.40;15.85;;;;;;;7.32;92.63;95079.66;1679150;85;21065;-53
2022/05/07 03:40:32;;;;;;;20.17;14.58;;;;;;;7.34;92.76;95080.02;1679731;85;21589;-53
2022/05/07 03:42:59;;;;;;;18.75;13.90;;;;;;;7.37;92.83;95085.27;1681688;85;20978;-55
2022/05/07 03:45:27;;;;;;;20.52;13.95;;;;;;;7.45;93.18;95084.72;1657014;85;21288;-53
2022/05/07 03:47:54;;;;;;;15.65;12.78;;;;;;;7.55;93.44;95082.36;1681546;85;21030;-52
2022/05/07 03:50:21;;;;;;;19.15;13.55;;;;;;;7.66;93.59;95082.20;1681652;84;21074;-53
2022/05/07 03:55:33;;;;;;;17.65;12.53;;;;;;;7.81;93.60;95091.66;1681944;85;21054;-54
2022/05/07 03:58:00;;;;;;;22.25;14.60;;;;;;;7.89;92.77;95089.73;1681859;85;21207;-52
2022/05/07 04:00:28;;;;;;;17.30;13.95;;;;;;;7.90;92.33;95085.80;1681602;85;21434;-53
2022/05/07 04:02:56;;;;;;;21.95;14.75;;;;;;;7.94;92.19;95084.37;1656489;85;21637;-53
2022/05/07 04:05:31;;;;;;;20.08;13.83;;;;;;;7.97;92.00;95082.94;1681409;85;21049;-54
2022/05/07 04:07:59;;;;;;;18.17;14.07;;;;;;;8.00;91.83;95084.83;1680853;84;21006;-54
2022/05/07 04:10:27;;;;;;;23.20;15.65;;;;;;;8.00;91.49;95083.45;1681730;84;21091;-53
2022/05/07 04:12:54;;;;;;;28.50;15.63;;;;;;;8.04;91.50;95075.94;1681689;85;21023;-54
2022/05/07 04:15:22;;;;;;;19.60;14.38;;;;;;;8.10;91.68;95084.44;1681348;85;21081;-55
2022/05/07 04:17:53;;;;;;;22.65;13.95;;;;;;;8.18;91.93;95086.64;1681517;85;21065;-55
2022/05/07 04:20:20;;;;;;;20.35;14.70;;;;;;;8.24;91.90;95084.94;1681795;85;21361;-55
2022/05/07 04:22:49;;;;;;;24.43;14.25;;;;;;;8.30;91.94;95087.38;1681351;85;21170;-54
2022/05/07 04:25:15;;;;;;;21.12;11.90;;;;;;;8.39;91.64;95084.81;1684054;84;21088;-54
2022/05/07 04:27:43;;;;;;;15.88;10.93;;;;;;;8.51;91.61;95086.91;1687051;85;21094;-56
2022/05/07 04:30:12;;;;;;;16.50;11.18;;;;;;;8.59;91.26;95088.90;1687341;85;21688;-55
2022/05/07 04:32:39;;;;;;;11.73;9.53;;;;;;;8.65;91.09;95083.07;1687241;85;21470;-53
2022/05/07 04:35:07;;;;;;;13.45;9.58;;;;;;;8.66;91.03;95084.00;1686927;85;21124;-53
2022/05/07 04:37:35;;;;;;;22.32;10.05;;;;;;;8.70;91.06;95077.86;1687108;85;20966;-53
2022/05/07 04:40:04;;;;;;;19.27;10.93;;;;;;;8.76;91.15;95081.62;1687054;85;21034;-56
2022/05/07 04:42:33;;;;;;;18.30;11.95;;;;;;;8.84;91.19;95082.99;1687186;85;21061;-53
2022/05/07 04:45:01;;;;;;;12.80;9.50;;;;;;;8.93;91.20;95083.19;1687090;85;21041;-55
2022/05/07 04:47:38;;;;;;;10.35;9.08;;;;;;;9.05;91.59;95088.00;1686659;85;21446;-54
2022/05/07 04:50:08;;;;;;;10.03;7.85;;;;;;;9.20;91.28;95087.22;1686829;85;21021;-54
2022/05/07 04:52:38;;;;;;;12.28;8.15;;;;;;;9.37;91.09;95090.13;1686737;85;20986;-55
2022/05/07 04:55:07;;;;;;;12.25;8.05;;;;;;;9.50;90.37;95097.05;1687263;85;21002;-54
2022/05/07 04:57:34;;;;;;;23.35;9.25;;;;;;;9.60;90.13;95097.40;1687168;85;21085;-55
2022/05/07 05:00:05;;;;;;;19.70;10.05;;;;;;;9.70;89.83;95094.38;1687223;85;21126;-54
2022/05/07 05:02:43;;;;;;;10.23;7.83;;;;;;;9.91;89.81;95098.50;1666244;85;21034;-55
2022/05/07 05:05:11;;;;;;;21.77;9.33;;;;;;;10.13;89.31;95092.64;1686932;84;21536;-54
2022/05/07 05:07:40;;;;;;;9.00;6.97;;;;;;;10.33;88.59;95098.75;1687078;85;21132;-54
2022/05/07 05:10:09;;;;;;;7.00;6.30;;;;;;;10.56;87.92;95100.58;1687150;85;20990;-54
2022/05/07 05:12:37;;;;;;;9.58;6.40;;;;;;;10.71;87.12;95097.58;1686746;85;21810;-56
2022/05/07 05:15:08;;;;;;;7.42;6.60;;;;;;;10.88;86.76;95099.80;1687017;85;21070;-54
2022/05/07 05:17:55;;;;;;;14.03;7.28;;;;;;;11.09;85.87;95096.98;1650382;86;21432;-54
2022/05/07 05:20:22;;;;;;;8.33;6.22;;;;;;;11.19;83.85;95102.14;1651647;87;21081;-55
2022/05/07 05:22:51;;;;;;;17.42;6.78;;;;;;;11.22;82.42;95094.40;1650924;85;21053;-55
2022/05/07 05:25:20;;;;;;;7.35;5.72;;;;;;;11.27;82.02;95095.80;1651890;86;21345;-56
2022/05/07 05:27:48;;;;;;;14.50;7.75;;;;;;;11.40;81.15;95097.34;1651502;87;21042;-53
2022/05/07 05:30:15;;;;;;;10.93;7.10;;;;;;;11.50;80.82;95096.21;1651754;86;20991;-54
2022/05/07 05:32:42;;;;;;;12.70;7.10;;;;;;;11.60;80.14;95093.75;1651539;87;21038;-54
2022/05/07 05:35:12;;;;;;;11.65;7.47;;;;;;;11.68;79.30;95097.04;1651766;86;21049;-56
2022/05/07 05:37:41;;;;;;;15.70;7.12;;;;;;;11.72;78.56;95088.79;1651432;86;21279;-54
2022/05/07 05:40:09;;;;;;;13.98;7.97;;;;;;;11.80;78.24;95088.73;1630581;87;21070;-55
2022/05/07 05:42:38;;;;;;;16.55;7.78;;;;;;;11.89;78.42;95089.41;1651633;86;21034;-56
2022/05/07 05:45:09;;;;;;;10.55;8.03;;;;;;;11.93;77.95;95083.91;1631056;87;21006;-55
2022/05/07 05:47:36;;;;;;;10.70;7.75;;;;;;;11.94;77.61;95084.08;1652960;86;21002;-56
2022/05/07 05:50:05;;;;;;;17.02;7.70;;;;;;;12.01;77.83;95083.84;1651855;87;21515;-57
2022/05/07 05:52:33;;;;;;;9.78;6.62;;;;;;;12.12;77.54;95081.45;1651089;86;21054;-56
2022/05/07 05:55:01;;;;;;;14.87;6.92;;;;;;;12.24;77.13;95086.16;1653179;86;21051;-55
2022/05/07 05:57:28;;;;;;;8.10;6.45;;;;;;;12.35;76.92;95082.41;1651918;86;21486;-56
2022/05/07 05:59:55;;;;;;;11.12;6.90;;;;;;;12.41;76.34;95077.09;1651710;86;20994;-54
2022/05/07 06:02:23;;;;;;;12.07;7.30;;;;;;;12.44;76.09;95077.56;1651843;87;21305;-54
2022/05/07 06:04:54;;;;;;;14.97;7.53;;;;;;;12.49;76.14;95084.63;1651388;86;21074;-54
2022/05/07 06:07:23;;;;;;;7.80;6.10;;;;;;;12.59;76.02;95080.70;1630358;87;21191;-55
2022/05/07 06:09:54;;;;;;;7.70;5.67;;;;;;;12.72;75.64;95080.78;1652025;86;21123;-55
2022/05/07 06:12:23;;;;;;;8.13;6.33;;;;;;;12.87;74.75;95084.53;1651947;87;21038;-55
2022/05/07 06:14:54;;;;;;;10.18;7.50;;;;;;;12.99;74.55;95088.45;1651587;86;21138;-56
2022/05/07 06:17:22;;;;;;;13.10;6.90;;;;;;;13.16;74.30;95086.98;1631159;87;21113;-56
2022/05/07 06:19:50;;;;;;;15.38;7.53;;;;;;;13.30;73.72;95087.18;1651978;87;21608;-57
2022/05/07 06:22:17;;;;;;;7.87;6.28;;;;;;;13.39;73.00;95083.08;1651523;85;21034;-58
2022/05/07 06:27:32;;;;;;;8.55;5.62;;;;;;;13.56;72.65;95084.95;1651673;87;21158;-56
2022/05/07 06:30:02;;;;;;;16.12;6.30;;;;;;;13.71;71.99;95084.52;1650418;86;21565;-55
2022/05/07 06:32:38;;;;;;;11.28;6.35;;;;;;;13.84;71.68;95082.39;1653251;86;21010;-54
2022/05/07 06:35:09;;;;;;;9.00;6.15;;;;;;;13.97;71.13;95087.92;1652212;86;21048;-57
2022/05/07 06:37:39;;;;;;;30.88;8.40;;;;;;;14.02;70.39;95090.07;1650642;86;20999;-55
2022/05/07 06:40:09;;;;;;;9.68;6.50;;;;;;;13.99;70.05;95086.84;1652357;86;21112;-56
2022/05/07 06:42:40;;;;;;;9.33;7.62;;;;;;;13.96;69.66;95083.63;1651867;86;20978;-54
2022/05/07 06:45:10;;;;;;;9.25;7.65;;;;;;;13.87;69.84;95087.00;1652156;86;21487;-55
2022/05/07 06:47:37;;;;;;;12.50;7.70;;;;;;;13.92;70.50;95087.76;1630226;87;21043;-58
2022/05/07 06:50:05;;;;;;;8.65;6.62;;;;;;;14.10;70.80;95087.77;1651904;86;21062;-56
2022/05/07 06:52:32;;;;;;;16.42;8.73;;;;;;;14.31;70.58;95083.49;1651865;86;21854;-55
2022/05/07 06:54:59;;;;;;;9.10;6.78;;;;;;;14.40;69.59;95081.33;1651505;86;20982;-54
2022/05/07 06:57:26;;;;;;;8.53;6.30;;;;;;;14.45;69.28;95076.70;1651710;86;21099;-56
2022/05/07 06:59:53;;;;;;;9.20;6.90;;;;;;;14.45;69.13;95074.56;1651943;87;21546;-55
2022/05/07 07:02:22;;;;;;;15.80;7.72;;;;;;;14.39;69.12;95077.03;1651837;86;21180;-56
2022/05/07 07:04:50;;;;;;;14.80;7.17;;;;;;;14.33;69.24;95079.64;1651960;86;21266;-56
2022/05/07 07:07:24;;;;;;;9.20;7.20;;;;;;;14.34;69.36;95076.28;1630142;86;20992;-60
2022/05/07 07:09:46;;;;;;;10.85;7.00;;;;;;;14.42;69.49;95072.73;1650904;86;21046;-55
2022/05/07 07:12:14;;;;;;;11.93;7.72;;;;;;;14.55;69.33;95068.55;1653581;85;21151;-56
2022/05/07 07:14:41;;;;;;;10.45;7.72;;;;;;;14.71;68.94;95071.58;1630528;86;21537;-56
2022/05/07 07:17:27;;;;;;;12.07;7.53;;;;;;;14.83;69.08;95072.77;1651845;87;20971;-58
2022/05/07 07:19:54;;;;;;;8.68;6.62;;;;;;;14.97;68.61;95073.50;1651571;86;21078;-55
2022/05/07 07:22:21;;;;;;;10.53;7.20;;;;;;;15.16;67.97;95065.27;1631239;86;21041;-55
2022/05/07 07:24:49;;;;;;;13.72;6.03;;;;;;;15.28;67.51;95074.00;1651665;87;21007;-58
2022/05/07 07:27:16;;;;;;;13.75;5.85;;;;;;;15.46;66.82;95067.00;1624248;87;20990;-56
2022/05/07 07:29:47;;;;;;;8.95;6.08;;;;;;;15.67;66.51;95072.89;1648675;86;21135;-57
2022/05/07 07:32:13;;;;;;;10.10;6.15;;;;;;;15.82;65.30;95067.39;1594226;88;21550;-56
2022/05/07 07:34:41;;;;;;;12.90;6.75;;;;;;;15.90;64.32;95067.95;1681765;85;21100;-56
2022/05/07 07:37:07;;;;;;;8.20;6.10;;;;;;;15.86;64.36;95056.87;1681665;85;21022;-55
2022/05/07 07:39:36;;;;;;;7.42;6.22;;;;;;;15.86;64.11;95059.04;1681923;84;21467;-55
2022/05/07 07:42:04;;;;;;;5.75;4.90;;;;;;;15.89;64.42;95056.70;1681688;85;21285;-55
2022/05/07 07:44:31;;;;;;;7.60;5.83;;;;;;;15.97;63.88;95055.11;1681960;85;21112;-54
2022/05/07 07:49:43;;;;;;;6.47;5.78;;;;;;;16.31;63.74;95048.94;1681817;85;21030;-57
2022/05/07 07:52:12;;;;;;;9.75;6.58;;;;;;;16.54;63.50;95041.22;1681675;85;21561;-55
2022/05/07 07:54:40;;;;;;;8.53;5.40;;;;;;;16.73;62.28;95043.95;1681466;85;21809;-55
2022/05/07 07:57:08;;;;;;;14.23;6.55;;;;;;;16.88;61.21;95040.55;1681674;85;20986;-55
2022/05/07 07:59:35;;;;;;;9.53;5.60;;;;;;;16.97;61.05;95046.77;1681772;85;21030;-56
2022/05/07 08:02:04;;;;;;;8.78;5.55;;;;;;;17.02;60.39;95045.30;1655718;85;21057;-57
2022/05/07 08:04:31;;;;;;;9.10;5.30;;;;;;;17.04;60.29;95046.98;1679484;85;21144;-57
2022/05/07 08:12:30;;;;;;;10.70;5.90;;;;;;;17.19;59.68;95037.38;1681910;85;21122;-57
2022/05/07 08:14:58;;;;;;;6.97;5.12;;;;;;;17.29;59.83;95038.78;1679463;85;21497;-56
2022/05/07 08:17:25;;;;;;;9.20;5.70;;;;;;;17.37;59.57;95040.57;1655358;85;21093;-57
2022/05/07 08:19:52;;;;;;;7.28;5.40;;;;;;;17.38;59.49;95037.31;1681634;85;21773;-57
2022/05/07 08:22:18;;;;;;;12.80;6.30;;;;;;;17.46;58.93;95039.08;1681653;85;21042;-57
2022/05/07 08:24:45;;;;;;;25.55;6.58;;;;;;;17.54;58.93;95042.97;1681813;85;21620;-57
2022/05/07 08:27:14;;;;;;;6.05;4.85;;;;;;;17.65;59.18;95051.48;1682565;84;21045;-57
2022/05/07 08:29:41;;;;;;;55.03;8.18;;;;;;;17.78;58.50;95042.92;1660135;85;21089;-56
2022/05/07 08:32:09;;;;;;;10.32;5.72;;;;;;;17.83;58.29;95040.84;1649082;87;21152;-58
2022/05/07 08:34:38;;;;;;;11.70;5.22;;;;;;;17.93;57.93;95044.25;1649221;87;20999;-56
2022/05/07 08:37:05;;;;;;;7.28;5.37;;;;;;;18.07;58.20;95043.41;1649053;87;21010;-56
2022/05/07 08:39:33;;;;;;;8.73;4.50;;;;;;;18.30;58.90;95040.44;1649311;87;21044;-54
2022/05/07 08:42:01;;;;;;;5.65;4.40;;;;;;;18.57;58.48;95037.95;1622098;88;21399;-58
2022/05/07 08:44:28;;;;;;;5.60;4.37;;;;;;;18.83;59.04;95027.53;1626653;87;21255;-57
2022/05/07 08:46:57;;;;;;;10.23;5.47;;;;;;;19.09;58.75;95035.25;1649127;87;20987;-56
2022/05/07 08:49:25;;;;;;;9.00;5.40;;;;;;;19.27;58.58;95027.94;1649057;87;21046;-55
2022/05/07 08:51:54;;;;;;;9.45;6.87;;;;;;;19.51;58.41;95029.75;1649226;86;21638;-57
2022/05/07 08:54:21;;;;;;;14.75;5.45;;;;;;;19.74;57.57;95024.42;1625883;87;21175;-57
2022/05/07 08:56:48;;;;;;;13.98;5.78;;;;;;;19.89;55.92;95023.61;1649045;86;21778;-57
2022/05/07 08:59:15;;;;;;;14.38;5.33;;;;;;;20.07;55.23;95021.81;1627011;87;21082;-58
2022/05/07 09:01:43;;;;;;;10.30;4.78;;;;;;;20.29;55.56;95017.09;1649210;87;21042;-57
2022/05/07 09:04:10;;;;;;;10.13;5.33;;;;;;;20.43;52.53;95016.11;1648858;87;21034;-55
2022/05/07 09:06:38;;;;;;;6.28;4.65;;;;;;;20.50;54.03;95022.60;1649294;87;21437;-55
2022/05/07 09:09:06;;;;;;;7.72;5.08;;;;;;;20.68;54.87;95022.75;1648858;87;21221;-56
2022/05/07 09:11:42;;;;;;;4.85;4.30;;;;;;;20.81;52.88;95013.25;1649418;87;21063;-57
2022/05/07 09:14:09;;;;;;;5.40;4.35;;;;;;;21.00;51.36;95003.11;1649288;87;21006;-59
2022/05/07 09:16:40;;;;;;;12.78;4.85;;;;;;;21.14;50.16;95000.70;1648885;87;21034;-57
2022/05/07 09:19:24;;;;;;;6.65;4.47;;;;;;;21.29;49.35;95000.56;1638473;86;21094;-56
2022/05/07 09:21:54;;;;;;;8.90;4.65;;;;;;;21.46;50.02;94999.16;1606348;88;21263;-56
2022/05/07 09:24:21;;;;;;;8.03;4.10;;;;;;;21.63;49.50;94992.27;1633398;87;21002;-57
2022/05/07 09:26:48;;;;;;;4.87;4.20;;;;;;;21.70;48.00;94992.38;1633033;87;21011;-59
2022/05/07 09:29:18;;;;;;;6.60;4.67;;;;;;;21.76;47.49;94988.29;1632628;88;21031;-56
2022/05/07 09:31:48;;;;;;;6.95;4.33;;;;;;;21.95;48.92;94990.64;1608812;88;21093;-57
2022/05/07 09:37:18;;;;;;;7.95;5.25;;;;;;;22.33;48.11;94982.05;1608864;88;21114;-56
2022/05/07 09:39:50;;;;;;;6.97;4.10;;;;;;;22.49;47.55;94978.42;1630545;87;21029;-56
2022/05/07 09:42:22;;;;;;;4.95;3.90;;;;;;;22.69;44.70;94975.23;1632871;88;21014;-55
2022/05/07 09:44:50;;;;;;;15.20;4.17;;;;;;;22.75;42.63;94975.98;1632972;87;21011;-57
2022/05/07 09:47:17;;;;;;;4.15;3.45;;;;;;;22.79;42.81;94973.65;1632680;88;21247;-57
2022/05/07 09:52:33;;;;;;;4.30;3.90;;;;;;;23.03;44.48;94959.67;1632935;88;21110;-58
2022/05/07 09:57:49;;;;;;;4.25;3.33;;;;;;;23.21;43.80;94966.05;1585709;89;20987;-58
2022/05/07 10:00:19;;;;;;;4.33;3.65;;;;;;;23.46;41.69;94961.23;1572878;90;21437;-58
2022/05/07 10:03:20;;;;;;;10.20;4.15;;;;;;;23.59;41.75;94964.92;1666031;85;21070;-57
2022/05/07 10:05:54;;;;;;;6.62;4.60;;;;;;;23.77;40.37;94962.81;1673614;85;21569;-57
2022/05/07 10:08:58;;;;;;;7.70;4.28;;;;;;;24.02;42.99;94958.08;1673583;85;21082;-58
2022/05/07 10:11:27;;;;;;;7.00;4.20;;;;;;;24.21;42.71;94965.14;1673941;85;21451;-56
2022/05/07 10:13:55;;;;;;;5.37;4.05;;;;;;;24.25;40.68;94957.94;1648975;85;21684;-59
2022/05/07 10:16:23;;;;;;;6.25;4.10;;;;;;;24.20;40.75;94956.59;1673847;85;21010;-57
2022/05/07 10:18:50;;;;;;;6.40;3.95;;;;;;;24.00;40.25;94954.29;1673821;85;20983;-56
2022/05/07 10:21:18;;;;;;;7.15;4.60;;;;;;;23.77;41.38;94960.00;1648511;85;20975;-57
2022/05/07 10:23:53;;;;;;;10.72;5.55;;;;;;;23.56;42.46;94958.95;1667355;85;21106;-55
2022/05/07 10:26:22;;;;;;;7.35;4.75;;;;;;;23.44;42.66;94953.35;1682134;84;21267;-56
2022/05/07 10:28:51;;;;;;;5.60;4.62;;;;;;;23.35;44.23;94945.91;1664556;85;21076;-60
2022/05/07 10:31:22;;;;;;;6.92;4.55;;;;;;;23.38;44.96;94942.05;1687436;85;21486;-57
2022/05/07 10:33:49;;;;;;;7.37;4.35;;;;;;;23.40;44.97;94952.11;1686956;83;21053;-56
2022/05/07 10:36:16;;;;;;;8.65;4.35;;;;;;;23.52;44.11;94947.26;1687028;85;20982;-56
2022/05/07 10:38:44;;;;;;;6.25;4.08;;;;;;;23.64;44.34;94941.65;1687109;85;21082;-57
2022/05/07 10:41:22;;;;;;;6.75;3.95;;;;;;;23.73;44.08;94944.09;1687127;85;21018;-58
2022/05/07 10:44:03;;;;;;;7.05;4.80;;;;;;;23.72;42.88;94951.00;1684939;85;21065;-57
2022/05/07 10:46:44;;;;;;;10.83;5.40;;;;;;;23.46;42.88;94944.38;1687168;85;21132;-57
2022/05/07 10:49:10;;;;;;;5.45;4.25;;;;;;;23.09;42.87;94948.41;1664917;85;21018;-57
2022/05/07 10:51:50;;;;;;;5.12;4.12;;;;;;;22.99;44.40;94947.98;1687303;84;21052;-58
2022/05/07 10:54:24;;;;;;;6.17;4.28;;;;;;;22.98;43.88;94945.05;1686408;85;21093;-57
2022/05/07 10:56:52;;;;;;;7.87;5.08;;;;;;;22.89;44.24;94948.83;1687462;85;21108;-58
2022/05/07 10:59:23;;;;;;;8.43;5.08;;;;;;;22.84;45.53;94946.84;1687433;85;20990;-58
2022/05/07 11:01:50;;;;;;;7.28;5.28;;;;;;;22.86;46.31;94945.02;1687772;85;21025;-56
2022/05/07 11:04:21;;;;;;;9.73;5.50;;;;;;;22.90;46.66;94947.55;1687338;85;21241;-56
2022/05/07 11:06:53;;;;;;;9.58;6.67;;;;;;;22.86;45.99;94953.44;1687153;85;20978;-58
2022/05/07 11:09:24;;;;;;;8.28;6.35;;;;;;;22.60;45.60;94948.92;1687032;85;21125;-57
2022/05/07 11:11:57;;;;;;;8.93;6.85;;;;;;;22.25;46.00;94947.44;1665267;85;20994;-56
2022/05/07 11:14:26;;;;;;;9.45;6.62;;;;;;;21.92;47.47;94951.68;1665720;85;21070;-56
2022/05/07 11:16:55;;;;;;;10.63;6.78;;;;;;;21.67;47.07;94957.00;1687196;85;21893;-57
2022/05/07 11:19:31;;;;;;;11.28;6.85;;;;;;;21.38;48.08;94953.34;1687195;85;21081;-58
2022/05/07 11:21:59;;;;;;;11.78;8.40;;;;;;;20.98;48.11;94950.48;1687108;85;21092;-57
2022/05/07 11:24:28;;;;;;;10.45;7.87;;;;;;;20.75;49.38;94945.37;1687240;85;21099;-57
2022/05/07 11:26:58;;;;;;;12.80;8.80;;;;;;;20.59;50.34;94947.52;1686200;84;21580;-57
2022/05/07 11:29:25;;;;;;;13.53;10.30;;;;;;;20.43;52.73;94940.64;1681865;85;21141;-59
2022/05/07 11:32:04;;;;;;;16.82;10.10;;;;;;;20.43;54.16;94935.67;1681766;85;21025;-57
2022/05/07 11:34:38;;;;;;;10.88;8.68;;;;;;;20.62;54.39;94930.50;1681648;85;21042;-55
2022/05/07 11:37:22;;;;;;;14.98;10.00;;;;;;;21.06;54.68;94938.12;1681866;85;21029;-57
2022/05/07 11:39:59;;;;;;;9.68;7.10;;;;;;;21.66;55.58;94931.67;1681889;85;21121;-57
2022/05/07 11:42:33;;;;;;;10.50;6.00;;;;;;;22.55;53.30;94927.28;1681654;85;21127;-59
2022/05/07 11:47:57;;;;;;;9.63;5.97;;;;;;;23.96;47.90;94924.29;1681609;84;21084;-57
2022/05/07 11:50:40;;;;;;;7.03;4.90;;;;;;;24.53;44.08;94928.05;1656807;85;21078;-58
2022/05/07 11:53:15;;;;;;;6.95;4.53;;;;;;;24.87;41.30;94933.25;1681676;84;21652;-58
2022/05/07 11:55:44;;;;;;;11.03;4.58;;;;;;;24.81;40.59;94933.36;1657281;85;21257;-57
2022/05/07 11:58:20;;;;;;;6.60;4.40;;;;;;;24.71;40.01;94927.23;1682081;83;21501;-57
2022/05/07 12:00:54;;;;;;;6.72;4.70;;;;;;;24.72;40.17;94933.00;1681864;83;21486;-58
2022/05/07 12:03:26;;;;;;;5.90;4.37;;;;;;;24.39;39.22;94930.64;1681841;85;20994;-58
2022/05/07 12:05:56;;;;;;;5.80;4.33;;;;;;;23.97;39.65;94927.21;1681649;85;21034;-58
2022/05/07 12:08:33;;;;;;;9.55;5.30;;;;;;;23.48;40.04;94937.59;1682092;85;21166;-59
2022/05/07 12:11:00;;;;;;;13.00;4.97;;;;;;;23.05;40.74;94933.24;1681654;85;21460;-57
2022/05/07 12:13:28;;;;;;;10.08;5.87;;;;;;;22.81;41.07;94943.67;1681606;85;21136;-58